createdAt,value
2023-06-22T00:01:23.745Z,12.12
2023-06-22T00:03:51.242Z,12.08
2023-06-22T00:06:18.305Z,12.05
2023-06-22T00:08:45.128Z,12.04
2023-06-22T00:11:12.354Z,12.07
2023-06-22T00:13:40.173Z,11.99
2023-06-22T00:16:07.108Z,11.92
2023-06-22T00:18:33.939Z,11.86
2023-06-22T00:21:01.100Z,11.82
2023-06-22T00:23:28.167Z,11.75
2023-06-22T00:25:55.104Z,11.80
2023-06-22T00:28:22.185Z,11.76
2023-06-22T00:30:50.593Z,11.74
2023-06-22T00:33:17.987Z,11.65
2023-06-22T00:35:45.329Z,11.61
2023-06-22T00:38:12.694Z,11.60
2023-06-22T00:40:40.062Z,11.50
2023-06-22T00:43:07.355Z,11.46
2023-06-22T00:45:34.466Z,11.45
2023-06-22T00:48:01.971Z,11.47
2023-06-22T00:50:35.075Z,11.45
2023-06-22T00:53:09.825Z,11.39
2023-06-22T00:55:44.900Z,11.37
2023-06-22T00:58:12.948Z,11.34
2023-06-22T01:00:41.329Z,11.44
2023-06-22T01:03:10.967Z,11.39
2023-06-22T01:05:39.403Z,11.31
2023-06-22T01:08:31.469Z,11.22
2023-06-22T01:11:12.320Z,11.15
2023-06-22T01:13:49.407Z,11.10
2023-06-22T01:16:21.890Z,11.11
2023-06-22T01:18:52.004Z,11.10
2023-06-22T01:21:22.147Z,11.07
2023-06-22T01:24:27.208Z,11.06
2023-06-22T01:26:56.911Z,11.03
2023-06-22T01:29:25.779Z,10.98
2023-06-22T01:31:53.730Z,10.94
2023-06-22T01:34:21.179Z,11.02
2023-06-22T01:36:48.339Z,11.01
2023-06-22T01:39:16.332Z,10.96
2023-06-22T01:41:44.057Z,10.90
2023-06-22T01:44:11.809Z,10.85
2023-06-22T01:46:40.801Z,10.87
2023-06-22T01:49:08.648Z,10.88
2023-06-22T01:51:35.397Z,10.94
2023-06-22T01:54:03.352Z,10.95
2023-06-22T01:56:30.232Z,10.88
2023-06-22T01:59:30.606Z,10.81
2023-06-22T02:02:10.440Z,10.75
2023-06-22T02:04:56.592Z,10.68
2023-06-22T02:07:25.047Z,10.60
2023-06-22T02:09:56.154Z,10.62
2023-06-22T02:12:26.449Z,10.64
2023-06-22T02:14:53.933Z,10.60
2023-06-22T02:17:21.681Z,10.51
2023-06-22T02:19:48.546Z,10.47
2023-06-22T02:22:15.765Z,10.47
2023-06-22T02:24:42.532Z,10.46
2023-06-22T02:27:09.374Z,10.38
2023-06-22T02:29:36.166Z,10.37
2023-06-22T02:32:03.091Z,10.27
2023-06-22T02:34:29.908Z,10.21
2023-06-22T02:36:56.729Z,10.27
2023-06-22T02:39:25.302Z,10.26
2023-06-22T02:41:54.098Z,10.20
2023-06-22T02:44:21.795Z,10.17
2023-06-22T02:46:49.496Z,10.04
2023-06-22T02:49:16.426Z,10.10
2023-06-22T02:51:48.947Z,10.14
2023-06-22T02:54:15.818Z,10.10
2023-06-22T02:56:44.951Z,10.08
2023-06-22T02:59:12.337Z,9.94
2023-06-22T03:01:41.291Z,9.92
2023-06-22T03:04:09.104Z,9.95
2023-06-22T03:06:36.813Z,10.04
2023-06-22T03:09:06.319Z,9.95
2023-06-22T03:11:34.008Z,10.01
2023-06-22T03:14:02.248Z,10.03
2023-06-22T03:16:29.261Z,9.85
2023-06-22T03:18:56.185Z,10.05
2023-06-22T03:21:29.620Z,9.98
2023-06-22T03:23:57.109Z,9.85
2023-06-22T03:26:25.034Z,9.86
2023-06-22T03:28:51.771Z,9.85
2023-06-22T03:31:22.883Z,9.88
2023-06-22T03:33:50.597Z,9.78
2023-06-22T03:36:21.555Z,9.99
2023-06-22T03:38:50.430Z,10.07
2023-06-22T03:41:17.377Z,10.09
2023-06-22T03:43:44.246Z,10.03
2023-06-22T03:46:11.255Z,10.11
2023-06-22T03:48:38.949Z,10.18
2023-06-22T03:51:05.905Z,10.15
2023-06-22T03:53:32.813Z,10.14
2023-06-22T03:55:59.643Z,10.19
2023-06-22T03:58:26.481Z,10.22
2023-06-22T04:00:54.259Z,10.30
2023-06-22T04:03:21.845Z,10.42
2023-06-22T04:05:50.055Z,10.59
2023-06-22T04:08:17.493Z,10.77
2023-06-22T04:10:44.636Z,10.92
2023-06-22T04:13:11.697Z,10.93
2023-06-22T04:15:38.509Z,11.01
2023-06-22T04:18:05.516Z,11.07
2023-06-22T04:20:33.416Z,11.11
2023-06-22T04:23:00.869Z,11.16
2023-06-22T04:25:27.697Z,10.94
2023-06-22T04:27:54.520Z,11.19
2023-06-22T04:30:21.361Z,11.20
2023-06-22T04:32:57.345Z,11.17
2023-06-22T04:35:25.823Z,11.20
2023-06-22T04:37:56.178Z,11.21
2023-06-22T04:40:26.348Z,11.21
2023-06-22T04:42:54.619Z,11.24
2023-06-22T04:45:22.253Z,11.29
2023-06-22T04:47:49.696Z,11.36
2023-06-22T04:50:16.770Z,11.38
2023-06-22T04:52:43.553Z,11.38
2023-06-22T04:55:10.432Z,11.40
2023-06-22T04:57:40.491Z,11.48
2023-06-22T05:00:13.385Z,11.47
2023-06-22T05:02:40.896Z,11.61
2023-06-22T05:05:08.683Z,11.69
2023-06-22T05:07:36.228Z,11.71
2023-06-22T05:10:06.606Z,11.75
2023-06-22T05:12:33.401Z,11.85
2023-06-22T05:15:00.303Z,11.93
2023-06-22T05:17:27.247Z,12.01
2023-06-22T05:19:54.993Z,12.04
2023-06-22T05:22:22.020Z,12.11
2023-06-22T05:24:48.878Z,12.16
2023-06-22T05:27:15.988Z,12.23
2023-06-22T05:29:44.019Z,12.32
2023-06-22T05:32:10.894Z,12.60
2023-06-22T05:34:38.520Z,12.97
2023-06-22T05:37:05.693Z,13.47
2023-06-22T05:39:32.608Z,13.96
2023-06-22T05:41:59.385Z,14.43
2023-06-22T05:44:26.232Z,14.90
2023-06-22T05:46:53.049Z,15.27
2023-06-22T05:49:19.981Z,15.69
2023-06-22T05:51:46.811Z,16.19
2023-06-22T05:54:15.076Z,16.79
2023-06-22T05:56:41.942Z,17.53
2023-06-22T05:59:08.736Z,18.23
2023-06-22T06:01:37.246Z,18.87
2023-06-22T06:04:10.894Z,19.58
2023-06-22T06:06:38.895Z,20.17
2023-06-22T06:09:06.073Z,20.74
2023-06-22T06:11:32.932Z,20.83
2023-06-22T06:13:59.977Z,20.69
2023-06-22T06:16:26.810Z,20.64
2023-06-22T06:18:55.953Z,20.37
2023-06-22T06:21:23.154Z,20.20
2023-06-22T06:23:49.941Z,20.17
2023-06-22T06:26:17.798Z,20.43
2023-06-22T06:28:45.143Z,20.93
2023-06-22T06:31:13.657Z,21.29
2023-06-22T06:33:40.530Z,21.78
2023-06-22T06:36:09.673Z,22.27
2023-06-22T06:38:36.526Z,22.48
2023-06-22T06:41:03.409Z,22.87
2023-06-22T06:43:30.222Z,23.40
2023-06-22T06:45:57.064Z,24.01
2023-06-22T06:48:23.889Z,24.73
2023-06-22T06:50:51.284Z,25.30
2023-06-22T06:53:18.225Z,25.81
2023-06-22T06:55:46.934Z,26.15
2023-06-22T06:58:14.501Z,26.45
2023-06-22T07:00:41.374Z,26.55
2023-06-22T07:03:08.519Z,26.83
2023-06-22T07:05:35.372Z,27.16
2023-06-22T07:08:02.857Z,27.45
2023-06-22T07:10:30.613Z,27.74
2023-06-22T07:12:58.514Z,27.96
2023-06-22T07:15:25.684Z,28.08
2023-06-22T07:17:52.619Z,28.31
2023-06-22T07:20:20.627Z,28.37
2023-06-22T07:22:47.448Z,28.44
2023-06-22T07:25:19.793Z,28.44
2023-06-22T07:27:57.693Z,28.49
2023-06-22T07:30:24.635Z,28.60
2023-06-22T07:32:51.615Z,28.41
2023-06-22T07:35:18.611Z,28.29
2023-06-22T07:37:45.682Z,27.86
2023-06-22T07:40:13.083Z,27.65
2023-06-22T07:42:39.949Z,27.99
2023-06-22T07:45:09.609Z,28.15
2023-06-22T07:47:37.005Z,28.41
2023-06-22T07:50:04.877Z,28.51
2023-06-22T07:52:32.144Z,28.35
2023-06-22T07:54:59.237Z,27.95
2023-06-22T07:57:34.412Z,28.01
2023-06-22T08:00:02.140Z,28.14
2023-06-22T08:02:29.016Z,28.36
2023-06-22T08:05:06.466Z,28.20
2023-06-22T08:07:45.887Z,27.79
2023-06-22T08:10:14.679Z,27.86
2023-06-22T08:12:41.676Z,28.14
2023-06-22T08:15:09.014Z,28.45
2023-06-22T08:17:36.040Z,28.71
2023-06-22T08:20:06.469Z,28.96
2023-06-22T08:22:34.566Z,29.37
2023-06-22T08:25:01.366Z,29.75
2023-06-22T08:27:29.629Z,29.62
2023-06-22T08:29:59.414Z,29.67
2023-06-22T08:32:29.268Z,29.81
2023-06-22T08:34:57.288Z,29.68
2023-06-22T08:37:32.183Z,29.38
2023-06-22T08:40:01.148Z,28.91
2023-06-22T08:42:28.656Z,28.88
2023-06-22T08:44:55.433Z,29.25
2023-06-22T08:47:22.764Z,29.14
2023-06-22T08:49:50.206Z,29.29
2023-06-22T08:52:19.758Z,29.50
2023-06-22T08:54:46.912Z,29.60
2023-06-22T08:57:13.670Z,29.76
2023-06-22T08:59:41.319Z,29.66
2023-06-22T09:02:08.139Z,29.84
2023-06-22T09:04:38.133Z,29.73
2023-06-22T09:07:05.673Z,29.71
2023-06-22T09:09:32.479Z,29.68
2023-06-22T09:11:59.220Z,29.77
2023-06-22T09:14:26.068Z,30.09
2023-06-22T09:16:52.927Z,30.33
2023-06-22T09:19:19.722Z,30.31
2023-06-22T09:21:46.576Z,30.21
2023-06-22T09:24:13.444Z,30.21
2023-06-22T09:26:40.652Z,30.31
2023-06-22T09:29:07.547Z,30.33
2023-06-22T09:31:34.451Z,30.45
2023-06-22T09:34:01.303Z,30.51
2023-06-22T09:36:28.236Z,30.45
2023-06-22T09:38:59.983Z,30.50
2023-06-22T09:41:26.998Z,30.58
2023-06-22T09:43:56.678Z,30.52
2023-06-22T09:46:26.431Z,30.53
2023-06-22T09:48:53.621Z,30.52
2023-06-22T09:51:25.121Z,30.64
2023-06-22T09:53:52.617Z,30.51
2023-06-22T09:56:19.466Z,30.37
2023-06-22T09:58:47.835Z,30.36
2023-06-22T10:01:17.616Z,30.72
2023-06-22T10:03:44.667Z,30.67
2023-06-22T10:06:12.148Z,30.22
2023-06-22T10:08:39.146Z,30.11
2023-06-22T10:11:06.527Z,30.28
2023-06-22T10:13:33.491Z,30.31
2023-06-22T10:16:00.325Z,30.38
2023-06-22T10:18:27.087Z,30.34
2023-06-22T10:20:53.977Z,30.47
2023-06-22T10:23:21.499Z,30.43
2023-06-22T10:25:48.532Z,30.36
2023-06-22T10:28:15.810Z,30.58
2023-06-22T10:30:43.342Z,30.97
2023-06-22T10:33:13.790Z,30.94
2023-06-22T10:35:40.679Z,31.29
2023-06-22T10:38:08.116Z,31.22
2023-06-22T10:40:35.179Z,31.22
2023-06-22T10:43:02.183Z,31.43
2023-06-22T10:45:29.639Z,31.31
2023-06-22T10:47:57.160Z,31.32
2023-06-22T10:50:25.807Z,31.18
2023-06-22T10:52:52.876Z,30.89
2023-06-22T10:55:19.828Z,30.79
2023-06-22T10:57:48.511Z,30.53
2023-06-22T11:00:17.154Z,30.66
2023-06-22T11:02:44.874Z,30.78
2023-06-22T11:05:12.225Z,30.88
2023-06-22T11:10:13.860Z,30.88
2023-06-22T11:12:40.909Z,30.99
2023-06-22T11:15:08.739Z,31.11
2023-06-22T11:17:35.711Z,30.91
2023-06-22T11:20:06.127Z,30.64
2023-06-22T11:22:34.815Z,30.42
2023-06-22T11:25:01.836Z,30.42
2023-06-22T11:27:29.405Z,30.57
2023-06-22T11:29:56.184Z,30.32
2023-06-22T11:32:23.126Z,30.00
2023-06-22T11:34:50.051Z,29.56
2023-06-22T11:37:17.128Z,29.58
2023-06-22T11:39:53.262Z,29.90
2023-06-22T11:42:26.496Z,29.84
2023-06-22T11:44:53.654Z,29.87
2023-06-22T11:47:20.574Z,30.26
2023-06-22T11:49:47.863Z,30.23
2023-06-22T11:52:14.690Z,30.15
2023-06-22T11:54:41.500Z,30.05
2023-06-22T11:57:08.308Z,29.67
2023-06-22T11:59:35.364Z,29.33
2023-06-22T12:02:02.232Z,28.99
2023-06-22T12:04:29.075Z,29.02
2023-06-22T12:06:55.869Z,29.51
2023-06-22T12:09:22.632Z,29.59
2023-06-22T12:11:49.396Z,29.51
2023-06-22T12:14:16.299Z,29.69
2023-06-22T12:16:45.099Z,29.87
2023-06-22T12:19:12.691Z,30.07
2023-06-22T12:21:41.914Z,30.14
2023-06-22T12:24:08.847Z,30.01
2023-06-22T12:26:35.711Z,30.16
2023-06-22T12:29:02.539Z,30.12
2023-06-22T12:31:29.375Z,30.31
2023-06-22T12:33:56.166Z,30.27
2023-06-22T12:36:23.459Z,30.33
2023-06-22T12:38:50.241Z,30.26
2023-06-22T12:41:17.047Z,30.34
2023-06-22T12:43:43.944Z,30.67
2023-06-22T12:46:10.772Z,30.98
2023-06-22T12:48:42.778Z,30.79
2023-06-22T12:51:11.090Z,30.94
2023-06-22T12:53:37.942Z,31.06
2023-06-22T12:56:05.126Z,30.98
2023-06-22T12:58:31.979Z,30.71
2023-06-22T13:00:58.831Z,30.75
2023-06-22T13:03:27.187Z,30.78
2023-06-22T13:05:54.498Z,30.35
2023-06-22T13:08:21.707Z,30.12
2023-06-22T13:10:48.568Z,29.82
2023-06-22T13:13:15.425Z,29.58
2023-06-22T13:15:42.246Z,29.25
2023-06-22T13:18:09.111Z,29.02
2023-06-22T13:20:36.054Z,28.86
2023-06-22T13:23:02.842Z,28.70
2023-06-22T13:25:29.745Z,28.19
2023-06-22T13:27:56.842Z,27.69
2023-06-22T13:30:23.707Z,27.23
2023-06-22T13:32:50.635Z,27.00
2023-06-22T13:35:17.640Z,26.86
2023-06-22T13:37:44.482Z,26.77
2023-06-22T13:40:11.623Z,26.74
2023-06-22T13:42:38.515Z,26.84
2023-06-22T13:45:06.405Z,27.13
2023-06-22T13:47:33.246Z,27.20
2023-06-22T13:50:00.554Z,27.19
2023-06-22T13:52:27.623Z,27.08
2023-06-22T13:54:54.557Z,27.12
2023-06-22T13:57:21.613Z,27.07
2023-06-22T13:59:48.423Z,27.02
2023-06-22T14:02:15.389Z,26.92
2023-06-22T14:04:42.385Z,26.93
2023-06-22T14:07:09.391Z,27.26
2023-06-22T14:09:36.212Z,27.54
2023-06-22T14:12:09.794Z,27.54
2023-06-22T14:14:36.621Z,27.56
2023-06-22T14:17:04.309Z,27.99
2023-06-22T14:19:31.200Z,28.37
2023-06-22T14:22:00.744Z,28.70
2023-06-22T14:24:28.716Z,28.96
2023-06-22T14:26:57.083Z,28.83
2023-06-22T14:29:24.256Z,28.63
2023-06-22T14:31:51.100Z,28.28
2023-06-22T14:34:17.951Z,27.91
2023-06-22T14:36:44.858Z,27.61
2023-06-22T14:39:11.660Z,27.39
2023-06-22T14:41:38.444Z,27.27
2023-06-22T14:44:05.294Z,27.06
2023-06-22T14:46:32.288Z,26.93
2023-06-22T14:48:59.191Z,26.71
2023-06-22T14:51:26.041Z,26.52
2023-06-22T14:53:52.810Z,26.08
2023-06-22T14:56:19.968Z,25.43
2023-06-22T14:58:47.990Z,24.57
2023-06-22T15:01:15.980Z,24.18
2023-06-22T15:03:43.065Z,23.72
2023-06-22T15:06:10.753Z,23.37
2023-06-22T15:08:41.512Z,22.86
2023-06-22T15:11:08.886Z,22.36
2023-06-22T15:13:36.082Z,21.93
2023-06-22T15:16:06.535Z,21.47
2023-06-22T15:18:37.283Z,21.44
2023-06-22T15:21:05.258Z,21.44
2023-06-22T15:23:32.862Z,21.34
2023-06-22T15:26:02.088Z,21.26
2023-06-22T15:28:30.349Z,21.12
2023-06-22T15:30:57.515Z,21.46
2023-06-22T15:33:25.881Z,21.75
2023-06-22T15:35:54.096Z,22.36
2023-06-22T15:38:21.172Z,22.97
2023-06-22T15:40:48.050Z,23.22
2023-06-22T15:43:15.376Z,23.24
2023-06-22T15:45:42.223Z,23.24
2023-06-22T15:48:09.159Z,23.51
2023-06-22T15:50:36.032Z,23.79
2023-06-22T15:53:02.825Z,23.95
2023-06-22T15:55:32.634Z,24.11
2023-06-22T15:57:59.645Z,24.28
2023-06-22T16:00:27.998Z,24.37
2023-06-22T16:02:55.684Z,24.36
2023-06-22T16:05:22.862Z,24.57
2023-06-22T16:07:49.790Z,24.56
2023-06-22T16:10:17.969Z,24.80
2023-06-22T16:12:47.887Z,24.38
2023-06-22T16:15:14.757Z,24.43
2023-06-22T16:17:41.844Z,24.44
2023-06-22T16:20:11.257Z,24.16
2023-06-22T16:22:38.233Z,24.18
2023-06-22T16:25:05.402Z,24.14
2023-06-22T16:27:33.172Z,24.20
2023-06-22T16:30:00.455Z,24.28
2023-06-22T16:32:27.459Z,24.31
2023-06-22T16:34:54.294Z,24.35
2023-06-22T16:37:21.485Z,24.47
2023-06-22T16:39:48.627Z,24.52
2023-06-22T16:42:15.510Z,24.62
2023-06-22T16:44:42.285Z,24.71
2023-06-22T16:47:09.605Z,24.84
2023-06-22T16:49:39.651Z,24.98
2023-06-22T16:52:06.883Z,24.90
2023-06-22T16:54:37.547Z,25.04
2023-06-22T16:57:07.153Z,25.10
2023-06-22T16:59:34.138Z,25.19
2023-06-22T17:02:01.410Z,25.18
2023-06-22T17:04:32.321Z,25.12
2023-06-22T17:07:27.616Z,25.09
2023-06-22T17:09:56.161Z,25.24
2023-06-22T17:12:24.426Z,25.25
2023-06-22T17:14:53.564Z,25.17
2023-06-22T17:17:20.505Z,25.19
2023-06-22T17:19:48.776Z,25.21
2023-06-22T17:22:15.733Z,25.24
2023-06-22T17:24:43.640Z,24.89
2023-06-22T17:27:10.401Z,24.73
2023-06-22T17:29:37.319Z,24.68
2023-06-22T17:32:05.375Z,24.68
2023-06-22T17:34:32.754Z,24.70
2023-06-22T17:37:00.562Z,24.59
2023-06-22T17:39:30.407Z,24.35
2023-06-22T17:41:57.478Z,24.20
2023-06-22T17:44:28.425Z,24.01
2023-06-22T17:46:59.554Z,23.80
2023-06-22T17:49:33.002Z,23.45
2023-06-22T17:52:01.710Z,23.42
2023-06-22T17:54:40.891Z,23.31
2023-06-22T17:57:20.151Z,23.18
2023-06-22T17:59:54.047Z,23.02
2023-06-22T18:02:26.481Z,22.95
2023-06-22T18:05:14.070Z,22.79
2023-06-22T18:07:41.564Z,22.79
2023-06-22T18:10:10.099Z,22.75
2023-06-22T18:12:39.331Z,22.67
2023-06-22T18:15:07.675Z,22.60
2023-06-22T18:17:34.779Z,22.59
2023-06-22T18:20:04.438Z,22.52
2023-06-22T18:22:32.044Z,22.63
2023-06-22T18:25:02.420Z,22.39
2023-06-22T18:27:29.916Z,22.33
2023-06-22T18:29:57.183Z,22.45
2023-06-22T18:32:24.204Z,22.48
2023-06-22T18:34:52.658Z,22.50
2023-06-22T18:37:21.197Z,22.47
2023-06-22T18:39:53.405Z,22.50
2023-06-22T18:42:22.030Z,22.52
2023-06-22T18:44:55.545Z,22.52
2023-06-22T18:47:30.169Z,22.56
2023-06-22T18:50:40.591Z,22.47
2023-06-22T18:53:15.485Z,22.43
2023-06-22T18:55:44.024Z,22.44
2023-06-22T18:58:16.078Z,22.37
2023-06-22T19:00:43.417Z,22.34
2023-06-22T19:03:29.360Z,22.28
2023-06-22T19:05:56.225Z,22.33
2023-06-22T19:08:24.739Z,22.32
2023-06-22T19:10:52.229Z,22.31
2023-06-22T19:13:27.212Z,22.31
2023-06-22T19:16:07.256Z,22.34
2023-06-22T19:18:43.245Z,22.40
2023-06-22T19:21:12.434Z,22.38
2023-06-22T19:23:41.141Z,22.38
2023-06-22T19:26:10.103Z,22.15
2023-06-22T19:28:49.170Z,22.03
2023-06-22T19:31:17.405Z,21.99
2023-06-22T19:33:44.321Z,21.99
2023-06-22T19:36:11.937Z,21.88
2023-06-22T19:38:41.986Z,21.82
2023-06-22T19:41:09.933Z,21.78
2023-06-22T19:43:37.121Z,21.70
2023-06-22T19:46:04.119Z,21.66
2023-06-22T19:48:32.261Z,21.64
2023-06-22T19:51:08.735Z,21.43
2023-06-22T19:53:35.685Z,21.35
2023-06-22T19:56:02.658Z,21.25
2023-06-22T19:58:33.655Z,21.16
2023-06-22T20:01:01.575Z,21.11
2023-06-22T20:03:38.301Z,20.99
2023-06-22T20:06:16.315Z,20.90
2023-06-22T20:08:48.047Z,20.88
2023-06-22T20:11:15.961Z,20.75
2023-06-22T20:13:50.453Z,20.64
2023-06-22T20:16:18.685Z,20.57
2023-06-22T20:18:46.498Z,20.47
2023-06-22T20:21:14.495Z,20.46
2023-06-22T20:23:42.623Z,20.45
2023-06-22T20:26:12.833Z,20.36
2023-06-22T20:28:39.685Z,20.25
2023-06-22T20:31:13.501Z,20.17
2023-06-22T20:33:40.478Z,20.15
2023-06-22T20:36:08.602Z,20.11
2023-06-22T20:38:38.491Z,20.04
2023-06-22T20:41:08.169Z,20.05
2023-06-22T20:43:35.023Z,19.91
2023-06-22T20:46:01.915Z,19.94
2023-06-22T20:48:38.967Z,19.94
2023-06-22T20:51:07.238Z,19.92
2023-06-22T20:53:34.129Z,19.84
2023-06-22T20:56:00.931Z,19.77
2023-06-22T20:58:27.732Z,19.75
2023-06-22T21:00:56.335Z,19.67
2023-06-22T21:03:23.370Z,19.65
2023-06-22T21:05:50.323Z,19.63
2023-06-22T21:08:17.362Z,19.46
2023-06-22T21:10:44.165Z,19.53
2023-06-22T21:13:11.641Z,19.43
2023-06-22T21:15:38.436Z,19.35
2023-06-22T21:18:05.301Z,19.27
2023-06-22T21:20:32.150Z,19.29
2023-06-22T21:22:59.010Z,19.24
2023-06-22T21:25:25.835Z,19.27
2023-06-22T21:27:52.628Z,19.23
2023-06-22T21:30:19.430Z,19.21
2023-06-22T21:32:46.367Z,19.20
2023-06-22T21:35:14.394Z,19.15
2023-06-22T21:37:43.245Z,19.05
2023-06-22T21:40:10.695Z,19.09
2023-06-22T21:42:37.475Z,19.04
2023-06-22T21:45:04.720Z,19.02
2023-06-22T21:47:31.536Z,18.97
2023-06-22T21:49:59.730Z,18.92
2023-06-22T21:52:30.598Z,18.93
2023-06-22T21:54:57.838Z,18.93
2023-06-22T21:57:27.888Z,18.91
2023-06-22T21:59:55.664Z,18.93
2023-06-22T22:02:24.208Z,18.91
2023-06-22T22:04:52.826Z,18.92
2023-06-22T22:07:20.553Z,18.89
2023-06-22T22:09:47.587Z,18.85
2023-06-22T22:12:14.619Z,18.82
2023-06-22T22:14:42.201Z,18.81
2023-06-22T22:17:10.173Z,18.83
2023-06-22T22:19:37.154Z,18.78
2023-06-22T22:22:05.150Z,18.70
2023-06-22T22:24:32.540Z,18.76
2023-06-22T22:26:59.979Z,18.74
2023-06-22T22:29:29.997Z,18.74
2023-06-22T22:31:56.825Z,18.71
2023-06-22T22:34:23.627Z,18.74
2023-06-22T22:36:51.539Z,18.73
2023-06-22T22:39:36.037Z,18.73
2023-06-22T22:42:03.116Z,18.68
2023-06-22T22:44:29.965Z,18.64
2023-06-22T22:46:58.141Z,18.63
2023-06-22T22:49:25.400Z,18.62
2023-06-22T22:51:53.175Z,18.61
2023-06-22T22:54:20.220Z,18.64
2023-06-22T22:56:47.426Z,18.63
2023-06-22T22:59:14.581Z,18.70
2023-06-22T23:01:41.877Z,18.69
2023-06-22T23:04:08.954Z,18.67
2023-06-22T23:06:38.145Z,18.71
2023-06-22T23:09:06.338Z,18.71
2023-06-22T23:11:33.297Z,18.69
2023-06-22T23:14:00.123Z,18.69
2023-06-22T23:16:28.655Z,18.70
2023-06-22T23:18:56.346Z,18.75
2023-06-22T23:21:23.227Z,18.74
2023-06-22T23:23:50.181Z,18.74
2023-06-22T23:26:17.118Z,18.63
2023-06-22T23:28:44.122Z,18.66
2023-06-22T23:31:11.277Z,18.65
2023-06-22T23:33:40.618Z,18.69
2023-06-22T23:36:07.657Z,18.63
2023-06-22T23:38:34.745Z,18.50
2023-06-22T23:41:02.509Z,18.45
2023-06-22T23:43:29.364Z,18.37
2023-06-22T23:45:56.445Z,18.33
2023-06-22T23:48:23.495Z,18.22
2023-06-22T23:50:51.204Z,18.15
2023-06-22T23:53:17.998Z,18.08
2023-06-22T23:55:44.964Z,18.02
2023-06-22T23:58:12.309Z,17.97
